Time;durP1;ratioP1;P1;durP2;ratioP2;P2;SDS_P1;SDS_P2;PMS_P1;PMS_P2;Temp;Humidity;BMP_temperature;BMP_pressure;BME280_temperature;BME280_humidity;BME280_pressure;Samples;Min_cycle;Max_cycle;Signal;HPM_P1;HPM_P2
2022/04/05 00:00:00;;;;;;;7.50;6.50;;;;;;;2.22;73.04;98427.73;105263;1284;22553;-75
2022/04/05 00:02:30;;;;;;;9.50;6.10;;;;;;;2.19;73.48;98422.90;105267;1284;22662;-75
2022/04/05 00:04:57;;;;;;;8.60;6.50;;;;;;;2.20;73.45;98421.16;105476;1281;24333;-77
2022/04/05 00:07:24;;;;;;;7.70;6.40;;;;;;;2.19;73.67;98435.06;106085;1274;22529;-76
2022/04/05 00:09:51;;;;;;;7.40;5.80;;;;;;;2.15;74.36;98424.84;106109;1274;25248;-77
2022/04/05 00:12:20;;;;;;;7.60;6.80;;;;;;;2.07;74.33;98423.85;106002;1275;22528;-77
2022/04/05 00:14:48;;;;;;;6.70;5.60;;;;;;;2.05;74.81;98423.51;106293;1274;22656;-77
2022/04/05 00:17:16;;;;;;;7.80;6.90;;;;;;;2.02;74.82;98415.03;105987;1274;22541;-77
2022/04/05 00:19:43;;;;;;;8.00;7.20;;;;;;;2.00;74.93;98411.04;106171;1274;25382;-79
2022/04/05 00:22:10;;;;;;;8.50;6.70;;;;;;;2.02;75.15;98398.88;106138;1274;24681;-77
2022/04/05 00:24:36;;;;;;;7.30;6.10;;;;;;;2.03;75.46;98406.16;106290;1275;25245;-79
2022/04/05 00:27:04;;;;;;;8.20;6.50;;;;;;;2.07;75.81;98400.05;106133;1274;22560;-78
2022/04/05 00:29:31;;;;;;;7.50;6.40;;;;;;;2.08;75.62;98396.75;106177;1274;22628;-79
2022/04/05 00:31:58;;;;;;;5.20;4.50;;;;;;;2.10;75.36;98387.19;106603;1275;22617;-77
2022/04/05 00:34:25;;;;;;;9.20;6.80;;;;;;;2.12;75.31;98399.16;106911;1273;22623;-80
2022/04/05 00:36:53;;;;;;;5.60;5.10;;;;;;;2.17;75.27;98390.09;106882;1274;22586;-80
2022/04/05 00:39:21;;;;;;;5.80;5.30;;;;;;;2.20;75.44;98372.36;107197;1275;25245;-76
2022/04/05 00:41:49;;;;;;;6.70;6.00;;;;;;;2.23;75.45;98370.94;107686;1274;22948;-78
2022/04/05 00:44:16;;;;;;;6.40;5.80;;;;;;;2.26;75.06;98374.05;107987;1277;22564;-78
2022/04/05 00:46:43;;;;;;;6.30;5.70;;;;;;;2.29;75.04;98369.15;106964;1274;25387;-81
2022/04/05 00:49:15;;;;;;;6.90;5.20;;;;;;;2.32;74.98;98358.19;106069;1281;25908;-76
2022/04/05 00:51:42;;;;;;;6.70;5.90;;;;;;;2.33;75.20;98351.74;105620;1281;26656;-71
2022/04/05 00:54:12;;;;;;;6.00;5.30;;;;;;;2.31;75.22;98350.90;105518;1279;25660;-76
2022/04/05 00:56:42;;;;;;;6.30;5.60;;;;;;;2.25;75.53;98344.70;105662;1277;22541;-72
2022/04/05 00:59:12;;;;;;;6.30;5.70;;;;;;;2.21;75.51;98348.89;105580;1281;26541;-71
2022/04/05 01:01:39;;;;;;;5.70;5.10;;;;;;;2.24;75.72;98351.14;105661;1279;24338;-80
2022/04/05 01:04:07;;;;;;;9.90;6.40;;;;;;;2.22;75.38;98341.42;105551;1281;23838;-77
2022/04/05 01:06:38;;;;;;;5.60;5.10;;;;;;;2.14;75.58;98340.27;106011;1277;22552;-78
2022/04/05 01:09:09;;;;;;;5.80;5.20;;;;;;;2.13;76.03;98336.80;106276;1274;25584;-74
2022/04/05 01:11:37;;;;;;;5.00;4.60;;;;;;;2.10;76.18;98329.02;106127;1275;25377;-76
2022/04/05 01:14:06;;;;;;;6.60;6.00;;;;;;;2.08;76.31;98326.24;106068;1274;22538;-76
2022/04/05 01:16:35;;;;;;;6.20;5.60;;;;;;;2.12;76.50;98330.21;106221;1273;22598;-78
2022/04/05 01:19:02;;;;;;;5.50;5.00;;;;;;;2.11;76.27;98337.70;106064;1274;25541;-77
2022/04/05 01:21:29;;;;;;;5.50;5.00;;;;;;;2.14;76.45;98334.89;105863;1277;24231;-77
2022/04/05 01:24:08;;;;;;;5.80;5.10;;;;;;;2.15;76.46;98335.23;106071;1275;25241;-79
2022/04/05 01:26:44;;;;;;;6.20;5.60;;;;;;;2.11;76.63;98335.25;106070;1274;23093;-78
2022/04/05 01:29:12;;;;;;;6.30;5.10;;;;;;;2.08;76.49;98333.02;106177;1274;24262;-81
2022/04/05 01:31:48;;;;;;;5.90;4.60;;;;;;;2.06;76.89;98329.41;106081;1274;22531;-79
2022/04/05 01:34:19;;;;;;;6.00;5.40;;;;;;;2.04;77.36;98326.98;106038;1274;23223;-78
2022/04/05 01:36:52;;;;;;;6.30;5.80;;;;;;;1.98;77.42;98332.76;105811;1278;22565;-79
2022/04/05 01:39:24;;;;;;;5.40;4.90;;;;;;;1.94;77.63;98329.83;105318;1282;25330;-79
2022/04/05 01:41:56;;;;;;;5.40;5.00;;;;;;;1.93;77.89;98325.15;105226;1284;22725;-80
2022/04/05 01:44:25;;;;;;;6.60;5.90;;;;;;;1.93;77.78;98321.69;105219;1284;25543;-77
2022/04/05 01:46:52;;;;;;;6.00;5.50;;;;;;;1.97;78.02;98315.23;105587;1282;25436;-80
2022/04/05 01:49:19;;;;;;;5.20;4.80;;;;;;;1.99;77.72;98303.41;104770;1287;25349;-81
2022/04/05 01:51:46;;;;;;;6.00;5.30;;;;;;;1.99;77.60;98304.27;104694;1290;25374;-79
2022/04/05 01:54:16;;;;;;;6.70;6.10;;;;;;;1.97;77.65;98303.94;104612;1290;26532;-78
2022/04/05 01:56:48;;;;;;;7.10;5.90;;;;;;;1.95;77.83;98298.74;105007;1281;26635;-78
2022/04/05 01:59:17;;;;;;;6.00;5.40;;;;;;;1.96;77.83;98300.83;105444;1281;22631;-75
2022/04/05 02:01:45;;;;;;;6.00;5.50;;;;;;;1.96;77.93;98295.61;105596;1281;25339;-74
2022/04/05 02:04:13;;;;;;;7.60;6.40;;;;;;;1.96;78.28;98294.92;105200;1284;22616;-75
2022/04/05 02:06:41;;;;;;;7.00;6.30;;;;;;;1.96;78.32;98287.82;105360;1278;23763;-77
2022/04/05 02:09:08;;;;;;;7.10;6.40;;;;;;;1.98;78.18;98286.23;105816;1278;24370;-81
2022/04/05 02:11:37;;;;;;;6.60;6.00;;;;;;;2.04;78.06;98281.14;105729;1278;25390;-77
2022/04/05 02:14:13;;;;;;;7.60;6.90;;;;;;;2.06;78.19;98283.05;105353;1278;22571;-77
2022/04/05 02:16:40;;;;;;;8.50;7.70;;;;;;;2.08;78.44;98280.93;105929;1277;23435;-78
2022/04/05 02:19:12;;;;;;;8.20;7.40;;;;;;;2.13;78.42;98272.38;105722;1277;25427;-79
2022/04/05 02:21:41;;;;;;;8.30;7.40;;;;;;;2.13;78.30;98266.13;105936;1274;22646;-77
2022/04/05 02:24:08;;;;;;;7.40;6.80;;;;;;;2.15;78.31;98267.84;106072;1273;22550;-77
2022/04/05 02:26:36;;;;;;;8.30;7.50;;;;;;;2.18;78.18;98266.95;106192;1274;25303;-78
2022/04/05 02:29:04;;;;;;;8.30;7.50;;;;;;;2.25;78.23;98266.38;106138;1274;25430;-77
2022/04/05 02:31:33;;;;;;;8.60;7.20;;;;;;;2.27;78.06;98259.73;106018;1276;25307;-77
2022/04/05 02:34:01;;;;;;;8.20;7.50;;;;;;;2.27;78.33;98257.14;106103;1274;22691;-77
2022/04/05 02:36:33;;;;;;;7.80;7.10;;;;;;;2.26;78.56;98259.06;105997;1273;22534;-82
2022/04/05 02:39:03;;;;;;;6.40;5.80;;;;;;;2.25;78.41;98257.67;106191;1273;22556;-80
2022/04/05 02:41:30;;;;;;;8.80;8.00;;;;;;;2.25;78.56;98258.20;106117;1272;24316;-80
2022/04/05 02:43:59;;;;;;;8.90;8.10;;;;;;;2.26;78.68;98252.11;106182;1273;24819;-81
2022/04/05 02:46:26;;;;;;;8.70;7.80;;;;;;;2.34;78.88;98254.64;106170;1273;22856;-77
2022/04/05 02:48:55;;;;;;;8.50;7.80;;;;;;;2.38;78.71;98256.69;106601;1273;22544;-77
2022/04/05 02:51:29;;;;;;;7.80;7.10;;;;;;;2.41;78.71;98250.92;106408;1273;22553;-79
2022/04/05 02:53:59;;;;;;;6.60;6.00;;;;;;;2.46;78.59;98258.00;106136;1278;25353;-77
2022/04/05 02:56:27;;;;;;;7.80;7.20;;;;;;;2.48;78.37;98257.09;106279;1278;22618;-76
2022/04/05 02:58:55;;;;;;;7.10;6.40;;;;;;;2.52;78.65;98258.80;106258;1284;25420;-77
2022/04/05 03:01:23;;;;;;;9.40;8.40;;;;;;;2.52;78.79;98255.15;106245;1284;22654;-77
2022/04/05 03:03:51;;;;;;;7.90;7.00;;;;;;;2.53;78.81;98253.93;105974;1284;24799;-75
2022/04/05 03:06:19;;;;;;;9.50;8.50;;;;;;;2.55;78.76;98259.98;106249;1284;22572;-77
2022/04/05 03:08:46;;;;;;;7.20;6.60;;;;;;;2.58;78.80;98251.44;106659;1285;22691;-77
2022/04/05 03:11:14;;;;;;;8.40;7.70;;;;;;;2.62;78.95;98248.61;106782;1283;25239;-75
2022/04/05 03:13:48;;;;;;;8.20;7.40;;;;;;;2.65;78.82;98245.11;107537;1278;22567;-78
2022/04/05 03:16:15;;;;;;;9.30;8.40;;;;;;;2.68;79.03;98247.33;107849;1275;22589;-77
2022/04/05 03:18:46;;;;;;;8.50;7.70;;;;;;;2.70;79.15;98238.09;108175;1273;22653;-81
2022/04/05 03:21:14;;;;;;;8.70;7.90;;;;;;;2.80;79.13;98232.92;108350;1273;22779;-81
2022/04/05 03:23:41;;;;;;;8.20;7.50;;;;;;;2.85;78.97;98241.91;108158;1274;24183;-81
2022/04/05 03:26:08;;;;;;;8.90;8.10;;;;;;;2.92;78.80;98243.57;107192;1273;22665;-80
2022/04/05 03:28:36;;;;;;;9.30;8.40;;;;;;;2.96;78.56;98242.81;106320;1273;25235;-79
2022/04/05 03:31:04;;;;;;;7.70;7.00;;;;;;;3.05;78.63;98226.02;105667;1279;26508;-81
2022/04/05 03:33:31;;;;;;;8.00;7.30;;;;;;;3.10;78.38;98234.30;105608;1279;25243;-77
2022/04/05 03:36:01;;;;;;;9.50;8.50;;;;;;;3.13;78.38;98229.56;105743;1279;25457;-76
2022/04/05 03:38:29;;;;;;;7.40;6.70;;;;;;;3.10;78.49;98230.30;105690;1281;25271;-75
2022/04/05 03:40:56;;;;;;;9.20;8.30;;;;;;;3.13;78.33;98236.67;106311;1277;26501;-75
2022/04/05 03:43:24;;;;;;;9.10;8.30;;;;;;;3.17;78.32;98227.76;106387;1281;25266;-76
2022/04/05 03:45:55;;;;;;;10.40;9.40;;;;;;;3.21;78.35;98226.50;106907;1278;22512;-75
2022/04/05 03:48:22;;;;;;;9.40;8.60;;;;;;;3.24;78.35;98227.31;106904;1275;26526;-76
2022/04/05 03:50:50;;;;;;;8.20;7.40;;;;;;;3.26;78.19;98224.16;108001;1273;22605;-76
2022/04/05 03:53:18;;;;;;;8.00;7.20;;;;;;;3.27;78.13;98225.18;108301;1272;22536;-76
2022/04/05 03:55:46;;;;;;;9.60;8.70;;;;;;;3.28;78.13;98224.84;108427;1272;22566;-81
2022/04/05 03:58:13;;;;;;;10.20;9.30;;;;;;;3.32;78.22;98222.52;108136;1273;22470;-83
2022/04/05 04:00:41;;;;;;;9.30;8.40;;;;;;;3.36;78.03;98232.89;107704;1271;26638;-79
2022/04/05 04:03:16;;;;;;;9.30;8.50;;;;;;;3.38;78.07;98220.16;106917;1273;22617;-78
2022/04/05 04:05:44;;;;;;;9.00;8.10;;;;;;;3.38;77.97;98221.89;107742;1273;25244;-80
2022/04/05 04:08:12;;;;;;;10.40;9.10;;;;;;;3.38;78.11;98225.73;106639;1274;23087;-77
2022/04/05 04:10:40;;;;;;;9.40;8.60;;;;;;;3.38;78.01;98221.54;106165;1273;26517;-81
2022/04/05 04:13:08;;;;;;;8.30;7.60;;;;;;;3.38;78.12;98218.05;105982;1276;26494;-80
2022/04/05 04:15:39;;;;;;;8.90;8.00;;;;;;;3.38;78.22;98230.24;105759;1277;25333;-80
2022/04/05 04:18:07;;;;;;;11.20;10.20;;;;;;;3.37;78.12;98216.68;105984;1276;25439;-81
2022/04/05 04:20:38;;;;;;;10.80;8.60;;;;;;;3.41;77.99;98221.85;105940;1277;25371;-77
2022/04/05 04:23:07;;;;;;;10.60;9.60;;;;;;;3.43;77.85;98228.43;106463;1279;24480;-78
2022/04/05 04:25:41;;;;;;;10.70;9.10;;;;;;;3.49;77.87;98227.14;105988;1277;22622;-77
2022/04/05 04:28:10;;;;;;;9.40;8.60;;;;;;;3.53;77.66;98227.77;105916;1278;23911;-80
2022/04/05 04:30:39;;;;;;;10.10;9.10;;;;;;;3.55;77.61;98224.26;106506;1273;24091;-82
2022/04/05 04:33:08;;;;;;;9.10;8.20;;;;;;;3.56;77.54;98223.19;106498;1274;23087;-81
2022/04/05 04:35:38;;;;;;;8.30;7.50;;;;;;;3.58;77.43;98226.64;106226;1274;22612;-78
2022/04/05 04:38:07;;;;;;;10.10;9.20;;;;;;;3.63;77.32;98223.42;106277;1273;23932;-78
2022/04/05 04:40:37;;;;;;;10.40;9.00;;;;;;;3.66;77.27;98232.27;106221;1273;25246;-81
2022/04/05 04:43:05;;;;;;;10.00;9.00;;;;;;;3.66;77.05;98231.56;106150;1273;23960;-81
2022/04/05 04:45:32;;;;;;;10.00;9.10;;;;;;;3.67;76.99;98236.42;106112;1273;22844;-82
2022/04/05 04:47:58;;;;;;;9.60;8.70;;;;;;;3.73;76.89;98232.34;106346;1273;26583;-73
2022/04/05 04:50:26;;;;;;;10.40;9.40;;;;;;;3.77;76.85;98233.64;105940;1278;22557;-82
2022/04/05 04:52:55;;;;;;;9.40;7.90;;;;;;;3.84;76.68;98233.37;106187;1276;23324;-78
2022/04/05 04:55:24;;;;;;;10.10;9.10;;;;;;;3.83;76.50;98232.68;105372;1281;24401;-81
2022/04/05 04:58:11;;;;;;;9.90;9.00;;;;;;;3.85;76.48;98237.34;105537;1282;24266;-82
2022/04/05 05:00:38;;;;;;;9.10;7.90;;;;;;;3.90;76.51;98231.36;105647;1283;22483;-82
2022/04/05 05:03:06;;;;;;;8.40;7.60;;;;;;;3.92;76.19;98229.93;105810;1282;26608;-80
2022/04/05 05:05:33;;;;;;;9.80;8.90;;;;;;;3.95;76.15;98229.18;105272;1287;25589;-80
2022/04/05 05:08:00;;;;;;;9.10;8.30;;;;;;;4.02;75.98;98234.83;105030;1282;26505;-82
2022/04/05 05:10:27;;;;;;;8.70;7.90;;;;;;;4.03;75.88;98241.40;105521;1282;24333;-89
2022/04/05 05:12:54;;;;;;;11.10;10.10;;;;;;;4.05;75.76;98245.57;105369;1281;23691;-82
2022/04/05 05:15:21;;;;;;;9.30;8.50;;;;;;;4.04;75.97;98234.25;105483;1281;22556;-77
2022/04/05 05:17:48;;;;;;;9.50;8.60;;;;;;;4.05;75.94;98234.24;105511;1281;23956;-77
2022/04/05 05:20:16;;;;;;;9.60;8.80;;;;;;;4.06;76.07;98234.75;105668;1281;24329;-76
2022/04/05 05:22:43;;;;;;;10.50;9.50;;;;;;;4.03;75.95;98241.58;104988;1285;24323;-81
2022/04/05 05:25:11;;;;;;;9.00;8.20;;;;;;;4.04;76.07;98236.52;105603;1280;23289;-80
2022/04/05 05:27:38;;;;;;;8.80;8.10;;;;;;;4.11;75.81;98236.58;105128;1283;24288;-79
2022/04/05 05:30:07;;;;;;;9.20;8.40;;;;;;;4.17;75.53;98240.48;105392;1282;25293;-76
2022/04/05 05:32:49;;;;;;;9.70;8.80;;;;;;;4.24;75.45;98242.80;105437;1282;24447;-77
2022/04/05 05:35:18;;;;;;;7.80;7.00;;;;;;;4.29;75.22;98245.33;106180;1281;22561;-88
2022/04/05 05:37:51;;;;;;;9.50;8.30;;;;;;;4.36;74.88;98262.09;108224;1281;24256;-91
2022/04/05 05:40:18;;;;;;;8.50;7.50;;;;;;;4.45;74.62;98258.27;107931;1276;22962;-89
2022/04/05 05:42:58;;;;;;;7.80;7.10;;;;;;;4.52;74.40;98259.71;107947;1276;25389;-90
2022/04/05 05:45:28;;;;;;;8.80;8.10;;;;;;;4.61;74.24;98268.10;107215;1281;22558;-90
2022/04/05 05:47:55;;;;;;;8.50;7.70;;;;;;;4.65;74.08;98270.27;106778;1281;22712;-86
2022/04/05 05:50:24;;;;;;;8.60;7.90;;;;;;;4.72;74.14;98279.05;106602;1281;22667;-89
2022/04/05 05:52:52;;;;;;;7.00;5.90;;;;;;;4.78;73.85;98263.41;106115;1281;25390;-90
2022/04/05 05:55:20;;;;;;;8.10;7.30;;;;;;;4.75;73.61;98272.36;106125;1281;22697;-88
2022/04/05 05:57:47;;;;;;;8.00;7.30;;;;;;;4.70;73.87;98288.16;105986;1281;24027;-90
2022/04/05 06:00:22;;;;;;;7.00;6.40;;;;;;;4.62;73.85;98289.34;106308;1281;22534;-87
2022/04/05 06:02:58;;;;;;;9.30;6.50;;;;;;;4.50;74.21;98291.65;106945;1274;22678;-90
2022/04/05 06:05:26;;;;;;;7.10;6.50;;;;;;;4.40;74.34;98297.58;107630;1273;22678;-89
2022/04/05 06:07:54;;;;;;;7.90;5.50;;;;;;;4.24;74.70;98286.02;106713;1281;22655;-91
2022/04/05 06:10:22;;;;;;;5.60;5.10;;;;;;;4.15;75.21;98286.34;107489;1281;22572;-89
2022/04/05 06:12:50;;;;;;;4.00;3.70;;;;;;;4.10;75.33;98295.83;106867;1281;22818;-90
2022/04/05 06:15:19;;;;;;;5.40;4.90;;;;;;;4.04;75.76;98302.71;106895;1281;22544;-90
2022/04/05 06:17:48;;;;;;;4.10;3.70;;;;;;;3.87;76.27;98311.51;106649;1281;22540;-90
2022/04/05 06:20:17;;;;;;;4.00;3.70;;;;;;;3.74;76.12;98306.66;106993;1281;25374;-90
2022/04/05 06:22:55;;;;;;;5.00;3.30;;;;;;;3.69;76.51;98309.69;106389;1282;22563;-91
2022/04/05 06:25:29;;;;;;;5.00;3.30;;;;;;;3.72;76.62;98314.88;106440;1276;22703;-91
2022/04/05 06:28:01;;;;;;;4.40;4.00;;;;;;;3.73;76.46;98309.29;107261;1273;22537;-90
2022/04/05 06:30:30;;;;;;;3.60;2.90;;;;;;;3.76;76.57;98307.33;107925;1273;22806;-92
2022/04/05 06:33:12;;;;;;;4.30;3.90;;;;;;;3.78;76.73;98305.02;107996;1273;25698;-90
2022/04/05 06:35:46;;;;;;;6.60;4.40;;;;;;;3.85;76.89;98316.59;108400;1273;22519;-92
2022/04/05 06:38:14;;;;;;;4.90;4.50;;;;;;;3.95;76.65;98323.23;108245;1272;25249;-90
2022/04/05 06:40:42;;;;;;;3.40;3.10;;;;;;;4.04;76.78;98318.38;108308;1273;26735;-91
2022/04/05 06:43:15;;;;;;;3.60;3.30;;;;;;;4.06;76.82;98323.92;107788;1273;22528;-92
2022/04/05 06:45:43;;;;;;;3.70;3.40;;;;;;;4.11;76.88;98318.46;107577;1273;24256;-90
2022/04/05 06:48:12;;;;;;;4.90;4.40;;;;;;;4.19;76.79;98319.72;107427;1274;22657;-90
2022/04/05 06:50:40;;;;;;;4.50;4.10;;;;;;;4.26;76.87;98316.98;107073;1273;25370;-91
2022/04/05 06:53:09;;;;;;;6.40;5.40;;;;;;;4.33;76.51;98316.01;107555;1273;22590;-91
2022/04/05 06:55:38;;;;;;;5.00;4.60;;;;;;;4.40;76.52;98316.05;108866;1273;22894;-90
2022/04/05 06:58:06;;;;;;;6.00;5.50;;;;;;;4.45;76.45;98312.48;109528;1273;22590;-90
2022/04/05 07:00:35;;;;;;;6.50;5.90;;;;;;;4.51;76.43;98312.55;109196;1274;22676;-90
2022/04/05 07:03:02;;;;;;;5.50;5.00;;;;;;;4.54;76.33;98310.58;109217;1276;22566;-87
2022/04/05 07:05:36;;;;;;;5.10;4.30;;;;;;;4.58;76.01;98318.88;109252;1276;22573;-91
2022/04/05 07:08:05;;;;;;;4.90;4.50;;;;;;;4.67;75.30;98317.14;109314;1276;22599;-88
2022/04/05 07:10:32;;;;;;;6.50;5.30;;;;;;;4.75;74.75;98329.75;108985;1276;22764;-89
2022/04/05 07:12:59;;;;;;;4.80;4.40;;;;;;;4.83;73.62;98321.04;107929;1276;25563;-90
2022/04/05 07:15:26;;;;;;;5.70;5.10;;;;;;;4.90;73.19;98309.92;107918;1276;25485;-90
2022/04/05 07:17:53;;;;;;;5.90;4.40;;;;;;;5.01;73.01;98312.14;107920;1273;250838;-92
2022/04/05 07:20:31;;;;;;;4.90;4.10;;;;;;;5.10;71.79;98322.27;108112;1273;22543;-88
2022/04/05 07:22:58;;;;;;;4.40;4.00;;;;;;;5.17;71.05;98319.85;107603;1273;24278;-91
2022/04/05 07:25:26;;;;;;;4.40;3.90;;;;;;;5.24;70.45;98334.88;107105;1273;22547;-89
2022/04/05 07:27:54;;;;;;;5.00;3.30;;;;;;;5.35;70.50;98331.19;106959;1273;22557;-90
2022/04/05 07:30:23;;;;;;;3.80;3.50;;;;;;;5.42;69.70;98321.42;107457;1273;24232;-89
2022/04/05 07:32:51;;;;;;;4.70;4.20;;;;;;;5.52;69.78;98323.50;107965;1273;24309;-90
2022/04/05 07:35:40;;;;;;;3.80;2.80;;;;;;;5.63;69.39;98322.21;107484;1273;22492;-89
2022/04/05 07:38:10;;;;;;;3.40;3.00;;;;;;;5.65;68.36;98321.27;107221;1273;24368;-86
2022/04/05 07:40:49;;;;;;;3.10;2.90;;;;;;;5.65;68.13;98329.14;106962;1273;22690;-90
2022/04/05 07:43:22;;;;;;;3.20;2.90;;;;;;;5.62;67.58;98346.86;106660;1273;24200;-88
2022/04/05 07:45:52;;;;;;;3.00;2.70;;;;;;;5.61;67.73;98356.30;106948;1273;22794;-86
2022/04/05 07:48:22;;;;;;;3.10;2.80;;;;;;;5.57;66.88;98351.32;106791;1274;22528;-88
2022/04/05 07:50:49;;;;;;;4.00;2.70;;;;;;;5.52;66.98;98368.00;106659;1273;22674;-88
2022/04/05 07:53:16;;;;;;;3.70;2.70;;;;;;;5.44;66.43;98366.08;106329;1274;22534;-89
2022/04/05 07:55:44;;;;;;;2.70;2.10;;;;;;;5.33;66.05;98369.45;106388;1273;22612;-88
2022/04/05 07:58:11;;;;;;;3.60;2.30;;;;;;;5.17;66.11;98379.53;106336;1273;25398;-91
2022/04/05 08:00:38;;;;;;;4.10;2.20;;;;;;;5.21;66.25;98373.71;106173;1277;24211;-88
2022/04/05 08:03:05;;;;;;;3.80;2.30;;;;;;;5.34;66.14;98368.73;106809;1273;22604;-90
2022/04/05 08:05:33;;;;;;;4.90;2.10;;;;;;;5.50;65.27;98368.23;106863;1273;25365;-89
2022/04/05 08:08:01;;;;;;;5.30;2.30;;;;;;;5.56;64.53;98380.31;106496;1277;22819;-90
2022/04/05 08:10:28;;;;;;;4.20;2.50;;;;;;;5.59;63.45;98379.05;106712;1277;23536;-89
2022/04/05 08:12:55;;;;;;;3.80;2.60;;;;;;;5.68;63.57;98377.98;106956;1279;22561;-90
2022/04/05 08:15:24;;;;;;;2.50;2.10;;;;;;;5.81;63.14;98383.81;107139;1277;22888;-90
2022/04/05 08:17:52;;;;;;;2.90;1.90;;;;;;;5.93;63.36;98377.08;107936;1279;25336;-89
2022/04/05 08:20:21;;;;;;;2.30;1.90;;;;;;;6.07;62.52;98379.08;107931;1278;25337;-93
2022/04/05 08:22:51;;;;;;;2.60;2.30;;;;;;;6.20;62.16;98377.04;107845;1278;22557;-92
2022/04/05 08:25:19;;;;;;;2.70;1.90;;;;;;;6.32;60.55;98374.30;107966;1273;22563;-91
2022/04/05 08:27:47;;;;;;;3.10;1.80;;;;;;;6.42;59.96;98384.02;107832;1273;22525;-92
2022/04/05 08:30:24;;;;;;;3.50;2.40;;;;;;;6.55;59.37;98390.88;108499;1273;22683;-89
2022/04/05 08:32:51;;;;;;;1.80;1.40;;;;;;;6.56;58.05;98397.50;109607;1273;22526;-91
2022/04/05 08:35:20;;;;;;;3.40;1.80;;;;;;;6.62;58.51;98383.90;109108;1273;22542;-88
2022/04/05 08:37:51;;;;;;;6.10;2.50;;;;;;;6.76;57.72;98392.27;108287;1273;22930;-93
2022/04/05 08:40:22;;;;;;;2.60;1.60;;;;;;;6.90;56.98;98403.13;109415;1273;23003;-90
2022/04/05 08:43:00;;;;;;;4.80;1.90;;;;;;;6.89;55.61;98419.26;109635;1273;22822;-91
2022/04/05 08:45:28;;;;;;;5.10;1.70;;;;;;;6.84;53.72;98408.70;109268;1273;22539;-90
2022/04/05 08:47:58;;;;;;;4.70;1.70;;;;;;;6.77;52.69;98416.56;109076;1273;22528;-92
2022/04/05 08:50:31;;;;;;;4.70;1.70;;;;;;;6.77;52.50;98398.90;108351;1273;22532;-92
2022/04/05 08:53:01;;;;;;;2.80;1.20;;;;;;;6.80;52.29;98419.64;108926;1273;22467;-91
2022/04/05 08:55:35;;;;;;;2.00;1.10;;;;;;;6.79;52.17;98420.02;108542;1273;22470;-93
2022/04/05 08:58:05;;;;;;;2.90;1.40;;;;;;;6.73;52.09;98422.10;108830;1273;25380;-89
2022/04/05 09:00:32;;;;;;;3.30;1.40;;;;;;;6.84;52.36;98422.52;108568;1273;23864;-90
2022/04/05 09:03:03;;;;;;;5.70;1.40;;;;;;;7.00;51.63;98425.96;108301;1276;22581;-91
2022/04/05 09:05:36;;;;;;;6.50;1.40;;;;;;;7.14;50.58;98420.36;108195;1276;22586;-93
2022/04/05 09:08:29;;;;;;;2.80;1.60;;;;;;;7.33;50.34;98417.75;108210;1276;22525;-92
2022/04/05 09:11:11;;;;;;;4.50;1.30;;;;;;;7.53;50.76;98428.75;108134;1276;22603;-91
2022/04/05 09:13:39;;;;;;;4.20;1.60;;;;;;;7.63;49.65;98439.67;108385;1276;22534;-91
2022/04/05 09:16:08;;;;;;;4.90;2.00;;;;;;;7.68;49.11;98433.95;108177;1282;22678;-92
2022/04/05 09:18:38;;;;;;;2.80;1.10;;;;;;;7.70;48.92;98453.85;108469;1282;22652;-90
2022/04/05 09:21:13;;;;;;;4.70;1.30;;;;;;;7.59;46.87;98439.61;108958;1277;22621;-90
2022/04/05 09:23:44;;;;;;;2.10;1.20;;;;;;;7.50;46.67;98446.00;109412;1277;22509;-92
2022/04/05 09:26:18;;;;;;;2.90;1.20;;;;;;;7.47;47.47;98454.48;109365;1277;22544;-90
2022/04/05 09:28:49;;;;;;;6.60;1.70;;;;;;;7.53;47.97;98458.89;109464;1277;22993;-89
2022/04/05 09:31:22;;;;;;;4.40;1.40;;;;;;;7.50;47.22;98468.61;108785;1284;22535;-88
2022/04/05 09:34:01;;;;;;;6.30;1.60;;;;;;;7.35;46.84;98464.09;108717;1277;22587;-91
2022/04/05 09:36:39;;;;;;;5.60;1.40;;;;;;;7.34;46.52;98446.27;109179;1277;22645;-91
2022/04/05 09:39:26;;;;;;;5.20;1.70;;;;;;;7.22;46.02;98460.40;109188;1278;22573;-89
2022/04/05 09:42:10;;;;;;;2.70;1.00;;;;;;;7.20;46.76;98470.27;108839;1277;22532;-90
2022/04/05 09:44:43;;;;;;;2.70;1.50;;;;;;;7.13;47.10;98465.55;107893;1278;22592;-90
2022/04/05 09:47:17;;;;;;;5.50;1.70;;;;;;;7.17;48.06;98471.38;107825;1278;22596;-90
2022/04/05 09:49:48;;;;;;;3.50;1.30;;;;;;;7.29;47.40;98479.31;108438;1273;25247;-92
2022/04/05 09:52:33;;;;;;;4.10;1.60;;;;;;;7.24;47.27;98476.98;108493;1273;23966;-89
2022/04/05 09:55:16;;;;;;;3.70;1.50;;;;;;;7.29;47.37;98475.98;107912;1279;22621;-90
2022/04/05 09:57:45;;;;;;;1.60;0.90;;;;;;;7.45;47.40;98465.59;108185;1279;22590;-88
2022/04/05 10:00:19;;;;;;;4.10;1.40;;;;;;;7.53;46.87;98476.75;108429;1278;22656;-93
2022/04/05 10:03:09;;;;;;;4.10;1.70;;;;;;;7.55;46.48;98478.81;108451;1279;23971;-90
2022/04/05 10:05:38;;;;;;;3.70;1.50;;;;;;;7.50;45.12;98475.06;108540;1277;22877;-91
2022/04/05 10:08:06;;;;;;;4.00;1.10;;;;;;;7.52;45.77;98476.41;109090;1277;22890;-91
2022/04/05 10:10:33;;;;;;;4.30;1.30;;;;;;;7.50;46.09;98480.34;108732;1277;22630;-91
2022/04/05 10:13:00;;;;;;;3.80;1.40;;;;;;;7.49;46.12;98489.45;109386;1271;22528;-91
2022/04/05 10:15:28;;;;;;;4.30;1.70;;;;;;;7.46;46.29;98490.26;109626;1273;22501;-89
2022/04/05 10:17:58;;;;;;;3.10;1.50;;;;;;;7.41;45.64;98492.11;109249;1274;22873;-91
2022/04/05 10:20:28;;;;;;;2.60;1.30;;;;;;;7.36;45.81;98499.96;108881;1273;23481;-91
2022/04/05 10:23:00;;;;;;;4.90;1.80;;;;;;;7.36;45.13;98501.89;108413;1273;23985;-90
2022/04/05 10:25:31;;;;;;;2.70;1.10;;;;;;;7.26;45.07;98508.44;108670;1273;24181;-92
2022/04/05 10:27:59;;;;;;;3.90;1.40;;;;;;;7.19;45.11;98515.09;107858;1273;22553;-91
2022/04/05 10:31:02;;;;;;;3.60;1.30;;;;;;;7.16;44.76;98509.39;108938;1273;22577;-90
2022/04/05 10:34:15;;;;;;;5.20;1.30;;;;;;;7.16;45.20;98526.37;108307;1278;22576;-91
2022/04/05 10:37:16;;;;;;;5.10;1.30;;;;;;;7.23;45.40;98531.47;108203;1279;22897;-92
2022/04/05 10:39:59;;;;;;;3.20;1.40;;;;;;;7.36;45.52;98529.20;108156;1279;22663;-90
2022/04/05 10:42:41;;;;;;;2.50;1.10;;;;;;;7.36;45.00;98522.02;108322;1277;22505;-89
2022/04/05 10:45:11;;;;;;;5.80;1.60;;;;;;;7.42;45.05;98528.88;106418;1282;24211;-92
2022/04/05 10:48:00;;;;;;;4.60;1.10;;;;;;;7.45;45.40;98528.46;106664;1282;22753;-92
2022/04/05 10:51:11;;;;;;;3.60;1.30;;;;;;;7.74;44.48;98533.64;106133;1282;22574;-91
2022/04/05 10:54:17;;;;;;;4.80;1.70;;;;;;;7.94;44.53;98538.70;106416;1282;22589;-92
2022/04/05 10:56:32;;;;;;;4.10;1.50;;;;;;;8.03;44.22;98561.27;106480;1282;24311;-93
2022/04/05 10:59:08;;;;;;;4.80;2.10;;;;;;;7.93;44.01;98543.27;106556;1282;25450;-91
2022/04/05 11:01:43;;;;;;;3.30;1.40;;;;;;;7.89;44.54;98557.05;106818;1282;22881;-91
2022/04/05 11:04:18;;;;;;;;;;;;;;;7.82;43.82;98563.56;107196;1279;25355;-92
2022/04/05 11:06:59;;;;;;;4.50;1.50;;;;;;;7.65;44.16;98568.21;106754;1282;25324;-89
2022/04/05 11:09:49;;;;;;;6.80;1.40;;;;;;;7.50;44.03;98568.95;107009;1282;23050;-91
2022/04/05 11:12:38;;;;;;;2.30;1.20;;;;;;;7.41;44.27;98569.72;106962;1278;22974;-92
2022/04/05 11:15:13;;;;;;;3.30;1.10;;;;;;;7.40;44.73;98578.66;106935;1280;25417;-90
2022/04/05 11:17:42;;;;;;;2.90;1.30;;;;;;;7.37;44.51;98578.20;107164;1277;24520;-90
2022/04/05 11:20:14;;;;;;;3.00;1.10;;;;;;;7.51;44.19;98577.69;107408;1279;24495;-92
2022/04/05 11:22:41;;;;;;;4.10;1.40;;;;;;;7.86;43.34;98577.12;108027;1279;25393;-90
2022/04/05 11:25:10;;;;;;;4.10;1.30;;;;;;;7.98;42.81;98574.36;107327;1273;22535;-92
2022/04/05 11:27:47;;;;;;;5.70;1.60;;;;;;;8.10;42.34;98587.34;109260;1273;22537;-90
2022/04/05 11:30:38;;;;;;;3.10;1.40;;;;;;;8.30;41.71;98583.98;108353;1273;22861;-88
2022/04/05 11:33:17;;;;;;;4.60;1.50;;;;;;;8.55;41.44;98586.95;107335;1278;25381;-90
2022/04/05 11:35:45;;;;;;;4.20;1.60;;;;;;;9.16;40.52;98585.46;107462;1279;22482;-90
2022/04/05 11:38:27;;;;;;;3.70;1.10;;;;;;;9.55;39.90;98593.86;107014;1279;22780;-91
2022/04/05 11:41:02;;;;;;;3.10;1.20;;;;;;;9.42;39.46;98597.45;106755;1279;22489;-91
2022/04/05 11:43:34;;;;;;;4.20;1.40;;;;;;;9.03;39.34;98592.17;106919;1279;22538;-90
2022/04/05 11:46:11;;;;;;;6.10;1.60;;;;;;;8.71;40.64;98598.96;107524;1279;22349;-90
2022/04/05 11:48:47;;;;;;;4.40;1.20;;;;;;;8.58;41.17;98607.24;107361;1279;22491;-90
2022/04/05 11:51:17;;;;;;;4.40;1.60;;;;;;;8.62;40.05;98601.69;107089;1273;22613;-91